Terminal Aerodrome Forecast
Issued by NWS

Home | Current Version | Previous Version | Text Only | Print | Product List | Glossary On
Versions: 1 2 3 4 5 6 7 8 9 10 11 12 13 14 15
000
FTUS43 KMQT 251120
TAFSAW
TAF
KSAW 251120Z 2512/2612 10006KT 2SM -SHRA BR OVC004
     FM252100 21012KT P6SM BKN008
     FM252300 21010KT P6SM BKN012
     FM260100 24008KT P6SM SCT020 BKN040=

USA.gov is the U.S. government's official web portal to all federal, state and local government web resources and services.